WGN618 KRNO-KMKC
Flight info
| Callsign | WGN618 |
|---|---|
| Flight time | 2h 13m |
| Altitude | 35000 |
| Route | YERIN MVA SNNOE MANRD DBL J80 GLD GOSSL EMP JHAWK8 |
| Aircraft | MD1F/H-SDE1E2E3FGHIJ2J3J4J5M1RWXY/LB1D1 |
Departure
| Time | 2026-04-24 21:55 |
|---|---|
| Airport | Reno Tahoe International Airport (KRNO) |
Arrival
| Time | 2026-04-25 00:08 |
|---|---|
| Airport | Charles B. Wheeler Downtown Airport (KMKC) |
| Time | Latitude | Longitude | Altitude | Speed | Heading |
|---|---|---|---|---|---|
| 2026-04-24 21:29 | 36.08016 | -115.12567 | 2056 ft | 0 kts | 89° |
| 2026-04-24 21:42 | 39.51024 | -119.77228 | 4426 ft | 0 kts | 269° |
| 2026-04-24 21:45 | 39.51024 | -119.77213 | 4425 ft | 3 kts | 269° |
| 2026-04-24 21:46 | 39.51024 | -119.77190 | 4425 ft | 1 kts | 270° |
| 2026-04-24 21:46 | 39.51024 | -119.77176 | 4425 ft | 1 kts | 277° |
| 2026-04-24 21:46 | 39.51022 | -119.77165 | 4425 ft | 2 kts | 292° |
| 2026-04-24 21:46 | 39.51018 | -119.77156 | 4425 ft | 1 kts | 309° |
| 2026-04-24 21:47 | 39.51013 | -119.77149 | 4425 ft | 1 kts | 325° |
| 2026-04-24 21:47 | 39.51007 | -119.77145 | 4424 ft | 1 kts | 340° |
| 2026-04-24 21:47 | 39.51000 | -119.77142 | 4424 ft | 0 kts | 354° |
| 2026-04-24 21:47 | 39.50993 | -119.77142 | 4424 ft | 0 kts | 359° |
| 2026-04-24 21:49 | 39.50998 | -119.77142 | 4424 ft | 2 kts | 359° |
| 2026-04-24 21:50 | 39.51025 | -119.77143 | 4425 ft | 5 kts | 354° |
| 2026-04-24 21:50 | 39.51074 | -119.77148 | 4426 ft | 8 kts | 357° |
| 2026-04-24 21:50 | 39.51143 | -119.77150 | 4427 ft | 11 kts | 0° |
| 2026-04-24 21:50 | 39.51232 | -119.77149 | 4429 ft | 14 kts | 0° |
| 2026-04-24 21:51 | 39.51329 | -119.77148 | 4430 ft | 10 kts | 8° |
| 2026-04-24 21:51 | 39.51371 | -119.77072 | 4428 ft | 12 kts | 83° |
| 2026-04-24 21:51 | 39.51375 | -119.76958 | 4428 ft | 12 kts | 88° |
| 2026-04-24 21:51 | 39.51376 | -119.76841 | 4428 ft | 12 kts | 90° |
| 2026-04-24 21:52 | 39.51375 | -119.76725 | 4427 ft | 12 kts | 94° |
| 2026-04-24 21:52 | 39.51330 | -119.76680 | 4426 ft | 9 kts | 173° |
| 2026-04-24 21:52 | 39.51319 | -119.76678 | 4426 ft | 0 kts | 174° |
| 2026-04-24 21:54 | 39.51156 | -119.76669 | 4423 ft | 58 kts | 180° |
| 2026-04-24 21:54 | 39.50473 | -119.76678 | 4417 ft | 126 kts | 180° |
| 2026-04-24 21:54 | 39.49371 | -119.76681 | 4417 ft | 180 kts | 180° |
| 2026-04-24 21:54 | 39.47974 | -119.76663 | 4774 ft | 188 kts | 176° |
| 2026-04-24 21:55 | 39.46648 | -119.76528 | 5172 ft | 196 kts | 175° |
| 2026-04-24 21:55 | 39.45278 | -119.76325 | 5723 ft | 197 kts | 173° |
| 2026-04-24 21:55 | 39.43847 | -119.75943 | 6192 ft | 200 kts | 150° |
| 2026-04-24 21:55 | 39.42896 | -119.74599 | 6593 ft | 194 kts | 105° |
| 2026-04-24 21:56 | 39.42671 | -119.72877 | 6903 ft | 196 kts | 90° |
| 2026-04-24 21:56 | 39.42409 | -119.71137 | 7160 ft | 203 kts | 123° |
| 2026-04-24 21:56 | 39.41413 | -119.69941 | 7552 ft | 196 kts | 156° |
| 2026-04-24 21:56 | 39.40145 | -119.69183 | 7827 ft | 202 kts | 148° |
| 2026-04-24 21:57 | 39.39169 | -119.67896 | 8182 ft | 199 kts | 116° |
| 2026-04-24 21:57 | 39.38525 | -119.66264 | 8458 ft | 207 kts | 121° |
| 2026-04-24 21:57 | 39.37695 | -119.64632 | 8545 ft | 230 kts | 128° |
| 2026-04-24 21:57 | 39.36653 | -119.62884 | 8673 ft | 256 kts | 127° |
| 2026-04-24 21:58 | 39.35515 | -119.60955 | 8875 ft | 280 kts | 127° |
| 2026-04-24 21:58 | 39.34317 | -119.58894 | 9330 ft | 295 kts | 126° |
| 2026-04-24 21:58 | 39.33067 | -119.56727 | 10039 ft | 304 kts | 126° |
| 2026-04-24 21:58 | 39.31784 | -119.54515 | 10622 ft | 320 kts | 126° |
| 2026-04-24 21:59 | 39.30382 | -119.52114 | 10854 ft | 349 kts | 126° |
| 2026-04-24 21:59 | 39.28845 | -119.49481 | 11050 ft | 378 kts | 126° |
| 2026-04-24 21:59 | 39.27243 | -119.46726 | 11514 ft | 397 kts | 126° |
| 2026-04-24 21:59 | 39.25554 | -119.43817 | 12345 ft | 405 kts | 126° |
| 2026-04-24 22:00 | 39.23862 | -119.40906 | 13223 ft | 412 kts | 126° |
| 2026-04-24 22:00 | 39.22157 | -119.37974 | 14136 ft | 417 kts | 126° |
| 2026-04-24 22:00 | 39.20403 | -119.34954 | 15052 ft | 422 kts | 126° |
| 2026-04-24 22:00 | 39.18661 | -119.31947 | 15908 ft | 427 kts | 126° |
| 2026-04-24 22:01 | 39.16864 | -119.28841 | 16751 ft | 432 kts | 126° |
| 2026-04-24 22:01 | 39.15074 | -119.25758 | 17567 ft | 437 kts | 126° |
| 2026-04-24 22:01 | 39.13260 | -119.22629 | 18380 ft | 441 kts | 126° |
| 2026-04-24 22:01 | 39.11412 | -119.19430 | 19143 ft | 447 kts | 126° |
| 2026-04-24 22:02 | 39.09542 | -119.16197 | 19901 ft | 452 kts | 127° |
| 2026-04-24 22:02 | 39.07664 | -119.12959 | 20645 ft | 457 kts | 127° |
| 2026-04-24 22:02 | 39.05756 | -119.09667 | 21349 ft | 462 kts | 127° |
| 2026-04-24 22:02 | 39.03827 | -119.06323 | 22036 ft | 468 kts | 127° |
| 2026-04-24 22:03 | 39.01902 | -119.02983 | 22721 ft | 473 kts | 127° |
| 2026-04-24 22:03 | 38.99932 | -118.99538 | 23385 ft | 478 kts | 126° |
| 2026-04-24 22:03 | 38.98046 | -118.96001 | 24034 ft | 483 kts | 123° |
| 2026-04-24 22:03 | 38.96273 | -118.92333 | 24643 ft | 489 kts | 121° |
| 2026-04-24 22:04 | 38.94594 | -118.88556 | 25224 ft | 494 kts | 121° |
| 2026-04-24 22:04 | 38.92882 | -118.84657 | 25830 ft | 497 kts | 121° |
| 2026-04-24 22:04 | 38.91152 | -118.80773 | 26410 ft | 501 kts | 122° |
| 2026-04-24 22:04 | 38.89336 | -118.76730 | 26999 ft | 506 kts | 121° |
| 2026-04-24 22:05 | 38.87439 | -118.72529 | 27628 ft | 510 kts | 120° |
| 2026-04-24 22:05 | 38.85585 | -118.68410 | 28370 ft | 511 kts | 121° |
| 2026-04-24 22:05 | 38.83717 | -118.64256 | 29210 ft | 509 kts | 120° |
| 2026-04-24 22:05 | 38.81792 | -118.59956 | 30038 ft | 508 kts | 121° |
| 2026-04-24 22:06 | 38.79876 | -118.55695 | 30795 ft | 506 kts | 120° |
| 2026-04-24 22:06 | 38.77987 | -118.51473 | 31520 ft | 504 kts | 121° |
| 2026-04-24 22:06 | 38.76107 | -118.47239 | 32149 ft | 504 kts | 120° |
| 2026-04-24 22:06 | 38.74267 | -118.43107 | 32735 ft | 503 kts | 121° |
| 2026-04-24 22:07 | 38.72442 | -118.39030 | 33276 ft | 503 kts | 121° |
| 2026-04-24 22:07 | 38.70624 | -118.34956 | 33796 ft | 503 kts | 121° |
| 2026-04-24 22:07 | 38.68809 | -118.30868 | 34300 ft | 502 kts | 121° |
| 2026-04-24 22:07 | 38.66998 | -118.26785 | 34675 ft | 502 kts | 121° |
| 2026-04-24 22:08 | 38.65061 | -118.22459 | 34947 ft | 504 kts | 122° |
| 2026-04-24 22:08 | 38.61426 | -118.14210 | 34890 ft | 501 kts | 121° |
| 2026-04-24 22:09 | 38.57840 | -118.04971 | 34977 ft | 503 kts | 108° |
| 2026-04-24 22:09 | 38.57008 | -117.99880 | 34989 ft | 505 kts | 95° |
| 2026-04-24 22:09 | 38.57027 | -117.94589 | 34986 ft | 505 kts | 82° |
| 2026-04-24 22:10 | 38.58520 | -117.84347 | 34971 ft | 508 kts | 80° |
| 2026-04-24 22:10 | 38.59768 | -117.73938 | 34965 ft | 509 kts | 82° |
| 2026-04-24 22:11 | 38.60823 | -117.63871 | 34979 ft | 509 kts | 82° |
| 2026-04-24 22:11 | 38.61850 | -117.54044 | 34971 ft | 509 kts | 82° |
| 2026-04-24 22:12 | 38.62909 | -117.44186 | 34973 ft | 509 kts | 82° |
| 2026-04-24 22:12 | 38.63992 | -117.34271 | 35000 ft | 509 kts | 82° |
| 2026-04-24 22:13 | 38.65016 | -117.24938 | 34988 ft | 509 kts | 82° |
| 2026-04-24 22:13 | 38.66079 | -117.15371 | 35027 ft | 510 kts | 82° |
| 2026-04-24 22:14 | 38.67140 | -117.05842 | 35003 ft | 509 kts | 82° |
| 2026-04-24 22:14 | 38.68263 | -116.95919 | 34992 ft | 510 kts | 81° |
| 2026-04-24 22:15 | 38.69332 | -116.86359 | 35019 ft | 510 kts | 83° |
| 2026-04-24 22:15 | 38.70192 | -116.77297 | 34979 ft | 509 kts | 83° |
| 2026-04-24 22:16 | 38.71084 | -116.67925 | 35004 ft | 510 kts | 83° |
| 2026-04-24 22:16 | 38.71967 | -116.58884 | 34984 ft | 509 kts | 82° |
| 2026-04-24 22:17 | 38.72892 | -116.49388 | 34976 ft | 510 kts | 82° |
| 2026-04-24 22:17 | 38.73801 | -116.40170 | 34994 ft | 511 kts | 82° |
| 2026-04-24 22:18 | 38.74736 | -116.30756 | 34972 ft | 510 kts | 83° |
| 2026-04-24 22:18 | 38.75695 | -116.21237 | 34972 ft | 510 kts | 83° |
| 2026-04-24 22:19 | 38.76706 | -116.11251 | 34984 ft | 511 kts | 82° |
| 2026-04-24 22:19 | 38.77792 | -116.00684 | 34991 ft | 511 kts | 82° |
| 2026-04-24 22:20 | 38.78862 | -115.90260 | 34998 ft | 512 kts | 82° |
| 2026-04-24 22:20 | 38.79957 | -115.79610 | 34991 ft | 512 kts | 83° |
| 2026-04-24 22:21 | 38.80880 | -115.68849 | 34975 ft | 512 kts | 83° |
| 2026-04-24 22:21 | 38.81805 | -115.58160 | 35000 ft | 512 kts | 83° |
| 2026-04-24 22:22 | 38.82724 | -115.47852 | 35001 ft | 512 kts | 83° |
| 2026-04-24 22:22 | 38.83637 | -115.37765 | 35011 ft | 514 kts | 83° |
| 2026-04-24 22:23 | 38.84530 | -115.27955 | 34995 ft | 514 kts | 83° |
| 2026-04-24 22:23 | 38.85448 | -115.17975 | 34994 ft | 514 kts | 83° |
| 2026-04-24 22:24 | 38.86386 | -115.07893 | 34977 ft | 516 kts | 83° |
| 2026-04-24 22:24 | 38.87340 | -114.97724 | 35003 ft | 516 kts | 83° |
| 2026-04-24 22:25 | 38.88321 | -114.87358 | 35006 ft | 515 kts | 83° |
| 2026-04-24 22:25 | 38.89330 | -114.77571 | 35001 ft | 515 kts | 83° |
| 2026-04-24 22:26 | 38.90288 | -114.67763 | 35015 ft | 516 kts | 83° |
| 2026-04-24 22:26 | 38.91329 | -114.57143 | 35010 ft | 516 kts | 82° |
| 2026-04-24 22:27 | 38.92365 | -114.46685 | 34978 ft | 517 kts | 82° |
| 2026-04-24 22:27 | 38.93309 | -114.37360 | 35008 ft | 518 kts | 82° |
| 2026-04-24 22:28 | 38.94263 | -114.27979 | 35015 ft | 517 kts | 83° |
| 2026-04-24 22:28 | 38.95280 | -114.18071 | 35000 ft | 517 kts | 83° |
| 2026-04-24 22:29 | 38.96833 | -114.03019 | 35000 ft | 518 kts | 82° |
| 2026-04-24 22:29 | 38.97914 | -113.92737 | 34989 ft | 516 kts | 82° |
| 2026-04-24 22:30 | 38.99040 | -113.82032 | 34942 ft | 517 kts | 82° |
| 2026-04-24 22:30 | 39.00025 | -113.71271 | 34933 ft | 518 kts | 83° |
| 2026-04-24 22:31 | 39.00940 | -113.60731 | 34927 ft | 519 kts | 83° |
| 2026-04-24 22:31 | 39.01881 | -113.50224 | 34928 ft | 519 kts | 83° |
| 2026-04-24 22:32 | 39.02854 | -113.39507 | 34935 ft | 521 kts | 83° |
| 2026-04-24 22:32 | 39.03796 | -113.29224 | 34912 ft | 521 kts | 83° |
| 2026-04-24 22:33 | 39.04727 | -113.19122 | 34917 ft | 521 kts | 83° |
| 2026-04-24 22:33 | 39.05640 | -113.09364 | 34905 ft | 522 kts | 83° |
| 2026-04-24 22:34 | 39.06625 | -112.98874 | 34900 ft | 521 kts | 83° |
| 2026-04-24 22:34 | 39.07640 | -112.88268 | 34918 ft | 523 kts | 83° |
| 2026-04-24 22:35 | 39.08672 | -112.77531 | 34923 ft | 523 kts | 83° |
| 2026-04-24 22:35 | 39.09589 | -112.66772 | 34928 ft | 524 kts | 84° |
| 2026-04-24 22:36 | 39.10425 | -112.55967 | 34911 ft | 525 kts | 84° |
| 2026-04-24 22:36 | 39.11237 | -112.45885 | 34917 ft | 524 kts | 84° |
| 2026-04-24 22:37 | 39.12107 | -112.35149 | 34924 ft | 525 kts | 84° |
| 2026-04-24 22:37 | 39.12985 | -112.24348 | 34937 ft | 525 kts | 84° |
| 2026-04-24 22:38 | 39.13863 | -112.13760 | 34944 ft | 527 kts | 84° |
| 2026-04-24 22:38 | 39.14748 | -112.03276 | 34948 ft | 528 kts | 84° |
| 2026-04-24 22:39 | 39.15668 | -111.92458 | 34948 ft | 527 kts | 84° |
| 2026-04-24 22:39 | 39.16587 | -111.81740 | 34954 ft | 527 kts | 84° |
| 2026-04-24 22:40 | 39.17485 | -111.71397 | 34946 ft | 528 kts | 84° |
| 2026-04-24 22:40 | 39.18281 | -111.60987 | 34957 ft | 528 kts | 84° |
| 2026-04-24 22:41 | 39.19015 | -111.50786 | 34951 ft | 529 kts | 85° |
| 2026-04-24 22:41 | 39.19766 | -111.40664 | 34956 ft | 529 kts | 85° |
| 2026-04-24 22:42 | 39.20581 | -111.29649 | 34962 ft | 530 kts | 85° |
| 2026-04-24 22:42 | 39.21414 | -111.18611 | 34966 ft | 529 kts | 84° |
| 2026-04-24 22:43 | 39.22250 | -111.07627 | 34961 ft | 529 kts | 84° |
| 2026-04-24 22:43 | 39.23106 | -110.96461 | 34953 ft | 529 kts | 84° |
| 2026-04-24 22:44 | 39.23878 | -110.85414 | 34942 ft | 530 kts | 86° |
| 2026-04-24 22:44 | 39.24461 | -110.75050 | 34944 ft | 531 kts | 86° |
| 2026-04-24 22:45 | 39.25063 | -110.64924 | 34934 ft | 531 kts | 85° |
| 2026-04-24 22:45 | 39.25686 | -110.54798 | 34925 ft | 531 kts | 85° |
| 2026-04-24 22:46 | 39.26330 | -110.44393 | 34925 ft | 532 kts | 84° |
| 2026-04-24 22:46 | 39.26995 | -110.33926 | 34916 ft | 533 kts | 86° |
| 2026-04-24 22:47 | 39.27669 | -110.23442 | 34908 ft | 533 kts | 86° |
| 2026-04-24 22:47 | 39.28361 | -110.12643 | 34900 ft | 533 kts | 85° |
| 2026-04-24 22:48 | 39.29081 | -110.01889 | 34902 ft | 534 kts | 85° |
| 2026-04-24 22:48 | 39.29778 | -109.91314 | 34913 ft | 535 kts | 84° |
| 2026-04-24 22:49 | 39.30439 | -109.81049 | 34927 ft | 535 kts | 86° |
| 2026-04-24 22:49 | 39.30941 | -109.70626 | 34940 ft | 536 kts | 86° |
| 2026-04-24 22:50 | 39.31468 | -109.60035 | 34947 ft | 536 kts | 86° |
| 2026-04-24 22:50 | 39.31992 | -109.49844 | 34952 ft | 536 kts | 85° |
| 2026-04-24 22:51 | 39.32516 | -109.39952 | 34949 ft | 537 kts | 85° |
| 2026-04-24 22:51 | 39.33083 | -109.29278 | 34937 ft | 538 kts | 86° |
| 2026-04-24 22:52 | 39.33698 | -109.18165 | 34940 ft | 539 kts | 85° |
| 2026-04-24 22:52 | 39.34312 | -109.07075 | 34949 ft | 539 kts | 86° |
| 2026-04-24 22:53 | 39.34936 | -108.96107 | 34948 ft | 538 kts | 85° |
| 2026-04-24 22:53 | 39.35538 | -108.85459 | 34948 ft | 540 kts | 85° |
| 2026-04-24 22:54 | 39.36133 | -108.75027 | 34931 ft | 541 kts | 87° |
| 2026-04-24 22:54 | 39.36561 | -108.64113 | 34931 ft | 541 kts | 86° |
| 2026-04-24 22:55 | 39.37017 | -108.53056 | 34945 ft | 541 kts | 86° |
| 2026-04-24 22:55 | 39.37489 | -108.41822 | 34955 ft | 541 kts | 86° |
| 2026-04-24 22:56 | 39.37976 | -108.30582 | 34960 ft | 542 kts | 87° |
| 2026-04-24 22:56 | 39.38473 | -108.19405 | 34968 ft | 543 kts | 86° |
| 2026-04-24 22:57 | 39.38983 | -108.08193 | 34986 ft | 543 kts | 87° |
| 2026-04-24 22:57 | 39.39502 | -107.97061 | 35006 ft | 543 kts | 86° |
| 2026-04-24 22:58 | 39.40031 | -107.85951 | 35006 ft | 543 kts | 86° |
| 2026-04-24 22:58 | 39.40583 | -107.74538 | 35006 ft | 544 kts | 86° |
| 2026-04-24 22:59 | 39.41077 | -107.63351 | 35000 ft | 543 kts | 88° |
| 2026-04-24 23:00 | 39.41571 | -107.47671 | 35031 ft | 544 kts | 87° |
| 2026-04-24 23:00 | 39.41956 | -107.37341 | 35066 ft | 544 kts | 87° |
| 2026-04-24 23:01 | 39.42331 | -107.26491 | 35070 ft | 544 kts | 88° |
| 2026-04-24 23:01 | 39.42767 | -107.15353 | 35078 ft | 544 kts | 87° |
| 2026-04-24 23:02 | 39.43189 | -107.04261 | 35078 ft | 543 kts | 86° |
| 2026-04-24 23:02 | 39.43646 | -106.93077 | 35067 ft | 542 kts | 85° |
| 2026-04-24 23:03 | 39.44759 | -106.82031 | 35068 ft | 542 kts | 79° |
| 2026-04-24 23:03 | 39.46075 | -106.71033 | 35062 ft | 542 kts | 80° |
| 2026-04-24 23:04 | 39.47339 | -106.59785 | 35065 ft | 544 kts | 80° |
| 2026-04-24 23:04 | 39.48564 | -106.48739 | 35053 ft | 543 kts | 81° |
| 2026-04-24 23:05 | 39.49788 | -106.37740 | 35050 ft | 543 kts | 80° |
| 2026-04-24 23:05 | 39.51076 | -106.26460 | 35039 ft | 543 kts | 81° |
| 2026-04-24 23:06 | 39.52364 | -106.15205 | 35028 ft | 544 kts | 80° |
| 2026-04-24 23:06 | 39.53662 | -106.04002 | 35026 ft | 544 kts | 80° |
| 2026-04-24 23:07 | 39.54973 | -105.92770 | 35031 ft | 544 kts | 80° |
| 2026-04-24 23:07 | 39.56314 | -105.81451 | 35030 ft | 544 kts | 80° |
| 2026-04-24 23:08 | 39.57587 | -105.70155 | 35036 ft | 544 kts | 82° |
| 2026-04-24 23:08 | 39.58698 | -105.58891 | 35041 ft | 545 kts | 81° |
| 2026-04-24 23:09 | 39.59842 | -105.47498 | 35029 ft | 544 kts | 81° |
| 2026-04-24 23:09 | 39.61018 | -105.36140 | 35024 ft | 543 kts | 81° |
| 2026-04-24 23:10 | 39.62187 | -105.24865 | 34985 ft | 542 kts | 80° |
| 2026-04-24 23:10 | 39.63376 | -105.13596 | 34940 ft | 541 kts | 81° |
| 2026-04-24 23:11 | 39.64567 | -105.02367 | 34897 ft | 540 kts | 81° |
| 2026-04-24 23:11 | 39.65772 | -104.91158 | 34850 ft | 541 kts | 80° |
| 2026-04-24 23:12 | 39.66987 | -104.79881 | 34833 ft | 542 kts | 80° |
| 2026-04-24 23:12 | 39.68220 | -104.68577 | 34823 ft | 543 kts | 81° |
| 2026-04-24 23:13 | 39.68630 | -104.57113 | 34824 ft | 543 kts | 95° |
| 2026-04-24 23:13 | 39.67503 | -104.45717 | 34817 ft | 547 kts | 99° |
| 2026-04-24 23:14 | 39.66279 | -104.34164 | 34815 ft | 549 kts | 97° |
| 2026-04-24 23:14 | 39.65163 | -104.22714 | 34832 ft | 550 kts | 98° |
| 2026-04-24 23:15 | 39.64060 | -104.11259 | 34858 ft | 551 kts | 97° |
| 2026-04-24 23:15 | 39.62928 | -103.99712 | 34848 ft | 552 kts | 98° |
| 2026-04-24 23:16 | 39.61808 | -103.88007 | 34853 ft | 552 kts | 96° |
| 2026-04-24 23:16 | 39.60698 | -103.76329 | 34861 ft | 551 kts | 97° |
| 2026-04-24 23:17 | 39.59629 | -103.64833 | 34867 ft | 552 kts | 96° |
| 2026-04-24 23:17 | 39.58577 | -103.53516 | 34869 ft | 553 kts | 97° |
| 2026-04-24 23:18 | 39.57488 | -103.42228 | 34879 ft | 552 kts | 98° |
| 2026-04-24 23:18 | 39.56211 | -103.30743 | 34872 ft | 552 kts | 99° |
| 2026-04-24 23:19 | 39.54984 | -103.19561 | 34860 ft | 552 kts | 99° |
| 2026-04-24 23:19 | 39.53745 | -103.08149 | 34865 ft | 552 kts | 97° |
| 2026-04-24 23:20 | 39.52521 | -102.96564 | 34866 ft | 552 kts | 99° |
| 2026-04-24 23:20 | 39.51296 | -102.84978 | 34840 ft | 552 kts | 97° |
| 2026-04-24 23:21 | 39.50081 | -102.73362 | 34852 ft | 551 kts | 98° |
| 2026-04-24 23:21 | 39.48902 | -102.61954 | 34830 ft | 551 kts | 96° |
| 2026-04-24 23:22 | 39.47708 | -102.50380 | 34819 ft | 549 kts | 98° |
| 2026-04-24 23:22 | 39.46552 | -102.38883 | 34810 ft | 549 kts | 97° |
| 2026-04-24 23:23 | 39.45212 | -102.27393 | 34794 ft | 548 kts | 98° |
| 2026-04-24 23:23 | 39.43854 | -102.15687 | 34814 ft | 548 kts | 99° |
| 2026-04-24 23:24 | 39.42523 | -102.03978 | 34814 ft | 548 kts | 98° |
| 2026-04-24 23:24 | 39.41228 | -101.92471 | 34802 ft | 546 kts | 98° |
| 2026-04-24 23:25 | 39.39942 | -101.81004 | 34815 ft | 545 kts | 98° |
| 2026-04-24 23:25 | 39.38666 | -101.69674 | 34808 ft | 546 kts | 99° |
| 2026-04-24 23:26 | 39.36768 | -101.58560 | 34824 ft | 545 kts | 105° |
| 2026-04-24 23:26 | 39.34517 | -101.47546 | 34807 ft | 543 kts | 105° |
| 2026-04-24 23:27 | 39.32345 | -101.36704 | 34815 ft | 542 kts | 104° |
| 2026-04-24 23:27 | 39.30132 | -101.25522 | 34812 ft | 542 kts | 104° |
| 2026-04-24 23:28 | 39.27959 | -101.14485 | 34816 ft | 542 kts | 105° |
| 2026-04-24 23:28 | 39.25771 | -101.03365 | 34812 ft | 542 kts | 105° |
| 2026-04-24 23:29 | 39.23622 | -100.92387 | 34823 ft | 543 kts | 104° |
| 2026-04-24 23:29 | 39.21469 | -100.81411 | 34828 ft | 541 kts | 104° |
| 2026-04-24 23:30 | 39.19371 | -100.70489 | 34839 ft | 541 kts | 105° |
| 2026-04-24 23:30 | 39.17275 | -100.59585 | 34852 ft | 540 kts | 104° |
| 2026-04-24 23:31 | 39.15031 | -100.48658 | 34852 ft | 539 kts | 105° |
| 2026-04-24 23:31 | 39.12729 | -100.37791 | 34857 ft | 540 kts | 105° |
| 2026-04-24 23:32 | 39.10419 | -100.26774 | 34854 ft | 540 kts | 105° |
| 2026-04-24 23:32 | 39.08118 | -100.15713 | 34849 ft | 539 kts | 106° |
| 2026-04-24 23:33 | 39.05848 | -100.04762 | 34853 ft | 539 kts | 105° |
| 2026-04-24 23:33 | 39.03590 | -99.93865 | 34856 ft | 539 kts | 104° |
| 2026-04-24 23:34 | 39.01404 | -99.83141 | 34864 ft | 536 kts | 105° |
| 2026-04-24 23:34 | 38.99194 | -99.72289 | 34861 ft | 535 kts | 105° |
| 2026-04-24 23:35 | 38.97003 | -99.61523 | 34864 ft | 535 kts | 104° |
| 2026-04-24 23:35 | 38.94804 | -99.50816 | 34866 ft | 534 kts | 106° |
| 2026-04-24 23:36 | 38.92422 | -99.40099 | 34874 ft | 533 kts | 106° |
| 2026-04-24 23:36 | 38.90058 | -99.29407 | 34869 ft | 532 kts | 107° |
| 2026-04-24 23:37 | 38.87701 | -99.18642 | 34866 ft | 530 kts | 107° |
| 2026-04-24 23:37 | 38.84246 | -99.02747 | 34862 ft | 529 kts | 106° |
| 2026-04-24 23:38 | 38.81981 | -98.92296 | 34863 ft | 528 kts | 106° |
| 2026-04-24 23:38 | 38.79719 | -98.81778 | 34851 ft | 529 kts | 106° |
| 2026-04-24 23:39 | 38.77494 | -98.71418 | 34851 ft | 529 kts | 106° |
| 2026-04-24 23:39 | 38.75319 | -98.61237 | 34851 ft | 530 kts | 106° |
| 2026-04-24 23:40 | 38.73136 | -98.50955 | 34849 ft | 530 kts | 106° |
| 2026-04-24 23:40 | 38.70776 | -98.40621 | 34854 ft | 529 kts | 107° |
| 2026-04-24 23:41 | 38.68369 | -98.30289 | 34845 ft | 529 kts | 108° |
| 2026-04-24 23:41 | 38.65968 | -98.19836 | 34846 ft | 529 kts | 108° |
| 2026-04-24 23:42 | 38.63572 | -98.09342 | 34851 ft | 531 kts | 108° |
| 2026-04-24 23:42 | 38.61253 | -97.99136 | 34849 ft | 531 kts | 108° |
| 2026-04-24 23:43 | 38.58950 | -97.88951 | 34857 ft | 531 kts | 108° |
| 2026-04-24 23:43 | 38.56638 | -97.78714 | 34856 ft | 530 kts | 108° |
| 2026-04-24 23:44 | 38.54338 | -97.68459 | 34860 ft | 531 kts | 107° |
| 2026-04-24 23:44 | 38.52050 | -97.58250 | 34862 ft | 531 kts | 107° |
| 2026-04-24 23:45 | 38.49771 | -97.48016 | 34863 ft | 531 kts | 108° |
| 2026-04-24 23:45 | 38.47380 | -97.37869 | 34863 ft | 530 kts | 107° |
| 2026-04-24 23:46 | 38.44977 | -97.27503 | 34853 ft | 531 kts | 108° |
| 2026-04-24 23:46 | 38.43261 | -97.16949 | 34858 ft | 531 kts | 99° |
| 2026-04-24 23:47 | 38.41878 | -97.06334 | 34863 ft | 532 kts | 101° |
| 2026-04-24 23:47 | 38.40396 | -96.95865 | 34865 ft | 532 kts | 102° |
| 2026-04-24 23:48 | 38.38899 | -96.85347 | 34866 ft | 532 kts | 102° |
| 2026-04-24 23:48 | 38.37421 | -96.74798 | 34871 ft | 533 kts | 101° |
| 2026-04-24 23:49 | 38.35937 | -96.64088 | 34336 ft | 538 kts | 102° |
| 2026-04-24 23:49 | 38.35198 | -96.58711 | 33359 ft | 543 kts | 101° |
| 2026-04-24 23:49 | 38.34447 | -96.53199 | 32222 ft | 550 kts | 101° |
| 2026-04-24 23:50 | 38.33701 | -96.47704 | 31341 ft | 549 kts | 101° |
| 2026-04-24 23:50 | 38.32951 | -96.42200 | 30221 ft | 551 kts | 101° |
| 2026-04-24 23:50 | 38.32206 | -96.36741 | 28976 ft | 545 kts | 101° |
| 2026-04-24 23:50 | 38.31480 | -96.31342 | 27876 ft | 534 kts | 102° |
| 2026-04-24 23:51 | 38.30758 | -96.25950 | 26773 ft | 523 kts | 101° |
| 2026-04-24 23:51 | 38.30225 | -96.20637 | 25776 ft | 522 kts | 92° |
| 2026-04-24 23:51 | 38.30483 | -96.15198 | 24965 ft | 529 kts | 80° |
| 2026-04-24 23:51 | 38.31677 | -96.09857 | 23925 ft | 530 kts | 66° |
| 2026-04-24 23:52 | 38.33717 | -96.05102 | 22909 ft | 508 kts | 51° |
| 2026-04-24 23:52 | 38.36503 | -96.01284 | 22075 ft | 490 kts | 38° |
| 2026-04-24 23:52 | 38.39580 | -95.98102 | 21471 ft | 484 kts | 37° |
| 2026-04-24 23:52 | 38.42527 | -95.94837 | 20648 ft | 486 kts | 41° |
| 2026-04-24 23:53 | 38.45347 | -95.91239 | 19680 ft | 476 kts | 45° |
| 2026-04-24 23:53 | 38.47950 | -95.87650 | 18874 ft | 463 kts | 46° |
| 2026-04-24 23:53 | 38.50448 | -95.84104 | 18293 ft | 454 kts | 46° |
| 2026-04-24 23:53 | 38.52937 | -95.80572 | 17720 ft | 450 kts | 46° |
| 2026-04-24 23:54 | 38.55439 | -95.77080 | 17134 ft | 445 kts | 46° |
| 2026-04-24 23:54 | 38.57906 | -95.73658 | 16546 ft | 441 kts | 46° |
| 2026-04-24 23:54 | 38.60374 | -95.70214 | 15957 ft | 436 kts | 46° |
| 2026-04-24 23:54 | 38.62795 | -95.66820 | 15356 ft | 432 kts | 46° |
| 2026-04-24 23:55 | 38.65177 | -95.63497 | 14803 ft | 427 kts | 46° |
| 2026-04-24 23:55 | 38.67578 | -95.60161 | 14690 ft | 430 kts | 46° |
| 2026-04-24 23:55 | 38.69967 | -95.56833 | 14686 ft | 433 kts | 46° |
| 2026-04-24 23:55 | 38.72344 | -95.53509 | 14609 ft | 432 kts | 46° |
| 2026-04-24 23:56 | 38.74744 | -95.50171 | 14477 ft | 430 kts | 46° |
| 2026-04-24 23:56 | 38.77113 | -95.46885 | 14222 ft | 429 kts | 46° |
| 2026-04-24 23:56 | 38.79463 | -95.43608 | 13836 ft | 426 kts | 46° |
| 2026-04-24 23:56 | 38.81779 | -95.40369 | 13308 ft | 421 kts | 46° |
| 2026-04-24 23:57 | 38.84015 | -95.37203 | 12734 ft | 416 kts | 47° |
| 2026-04-24 23:57 | 38.86211 | -95.34085 | 12229 ft | 413 kts | 47° |
| 2026-04-24 23:57 | 38.88169 | -95.30627 | 11727 ft | 408 kts | 62° |
| 2026-04-24 23:57 | 38.89272 | -95.26749 | 11068 ft | 389 kts | 80° |
| 2026-04-24 23:58 | 38.89460 | -95.22863 | 10581 ft | 368 kts | 93° |
| 2026-04-24 23:58 | 38.89207 | -95.19089 | 10181 ft | 349 kts | 96° |
| 2026-04-24 23:58 | 38.88909 | -95.15608 | 9890 ft | 329 kts | 96° |
| 2026-04-24 23:58 | 38.88661 | -95.12264 | 9681 ft | 308 kts | 95° |
| 2026-04-24 23:59 | 38.88482 | -95.09142 | 9631 ft | 297 kts | 94° |
| 2026-04-24 23:59 | 38.88332 | -95.06074 | 9492 ft | 292 kts | 93° |
| 2026-04-24 23:59 | 38.88196 | -95.03066 | 9377 ft | 289 kts | 92° |
| 2026-04-24 23:59 | 38.88059 | -95.00075 | 9039 ft | 289 kts | 93° |
| 2026-04-25 00:00 | 38.87910 | -94.97100 | 8673 ft | 287 kts | 92° |
| 2026-04-25 00:00 | 38.87759 | -94.94174 | 8261 ft | 281 kts | 92° |
| 2026-04-25 00:00 | 38.87620 | -94.91302 | 7889 ft | 273 kts | 92° |
| 2026-04-25 00:00 | 38.87491 | -94.88543 | 7539 ft | 265 kts | 92° |
| 2026-04-25 00:01 | 38.87364 | -94.85898 | 7197 ft | 258 kts | 91° |
| 2026-04-25 00:01 | 38.87237 | -94.83304 | 6862 ft | 251 kts | 91° |
| 2026-04-25 00:01 | 38.87116 | -94.80819 | 6524 ft | 238 kts | 91° |
| 2026-04-25 00:01 | 38.87006 | -94.78486 | 6182 ft | 225 kts | 91° |
| 2026-04-25 00:02 | 38.86905 | -94.76299 | 5917 ft | 212 kts | 91° |
| 2026-04-25 00:02 | 38.86807 | -94.74208 | 5773 ft | 203 kts | 91° |
| 2026-04-25 00:02 | 38.86712 | -94.72141 | 5574 ft | 210 kts | 91° |
| 2026-04-25 00:02 | 38.86983 | -94.70127 | 5305 ft | 203 kts | 63° |
| 2026-04-25 00:03 | 38.88033 | -94.68609 | 5049 ft | 201 kts | 30° |
| 2026-04-25 00:03 | 38.89481 | -94.67806 | 4755 ft | 202 kts | 19° |
| 2026-04-25 00:03 | 38.90970 | -94.67253 | 4455 ft | 195 kts | 17° |
| 2026-04-25 00:03 | 38.92382 | -94.66744 | 4178 ft | 180 kts | 18° |
| 2026-04-25 00:04 | 38.93690 | -94.66221 | 3936 ft | 169 kts | 20° |
| 2026-04-25 00:04 | 38.94937 | -94.65655 | 3666 ft | 167 kts | 21° |
| 2026-04-25 00:04 | 38.96183 | -94.65067 | 3540 ft | 166 kts | 22° |
| 2026-04-25 00:04 | 38.97424 | -94.64520 | 3450 ft | 169 kts | 19° |
| 2026-04-25 00:05 | 38.98708 | -94.64029 | 3112 ft | 166 kts | 18° |
| 2026-04-25 00:05 | 38.99945 | -94.63594 | 2827 ft | 162 kts | 17° |
| 2026-04-25 00:05 | 39.01187 | -94.63159 | 2580 ft | 162 kts | 17° |
| 2026-04-25 00:05 | 39.02432 | -94.62698 | 2499 ft | 164 kts | 18° |
| 2026-04-25 00:06 | 39.03684 | -94.62223 | 2370 ft | 166 kts | 17° |
| 2026-04-25 00:06 | 39.04979 | -94.61749 | 2159 ft | 166 kts | 18° |
| 2026-04-25 00:06 | 39.06272 | -94.61276 | 1966 ft | 165 kts | 17° |
| 2026-04-25 00:06 | 39.07573 | -94.60803 | 1696 ft | 165 kts | 17° |
| 2026-04-25 00:07 | 39.08817 | -94.60348 | 1465 ft | 165 kts | 17° |
| 2026-04-25 00:07 | 39.10115 | -94.59947 | 1053 ft | 168 kts | 14° |
| 2026-04-25 00:07 | 39.11434 | -94.59537 | 814 ft | 167 kts | 12° |
| 2026-04-25 00:07 | 39.12664 | -94.59187 | 762 ft | 135 kts | 12° |
| 2026-04-25 00:08 | 39.13227 | -94.58993 | 761 ft | 7 kts | 21° |
| 2026-04-25 00:08 | 39.13232 | -94.58990 | 760 ft | 0 kts | 26° |
| 2026-04-25 00:08 | 39.13240 | -94.58985 | 760 ft | 1 kts | 27° |
| 2026-04-25 00:08 | 39.13244 | -94.58982 | 760 ft | 3 kts | 31° |
| 2026-04-25 00:09 | 39.13256 | -94.58968 | 760 ft | 0 kts | 47° |
| 2026-04-25 00:09 | 39.13270 | -94.58917 | 760 ft | 13 kts | 92° |
| 2026-04-25 00:09 | 39.13269 | -94.58895 | 761 ft | 0 kts | 96° |
| 2026-04-25 00:09 | 39.13269 | -94.58894 | 761 ft | 0 kts | 96° |
| 2026-04-25 00:10 | 39.13268 | -94.58884 | 761 ft | 4 kts | 96° |
| 2026-04-25 00:10 | 39.13242 | -94.58822 | 762 ft | 8 kts | 146° |
| 2026-04-25 00:10 | 39.13166 | -94.58807 | 762 ft | 10 kts | 182° |
| 2026-04-25 00:10 | 39.13072 | -94.58818 | 762 ft | 12 kts | 186° |
| 2026-04-25 00:11 | 39.12959 | -94.58833 | 762 ft | 15 kts | 185° |
| 2026-04-25 00:11 | 39.12880 | -94.58853 | 762 ft | 9 kts | 215° |
| 2026-04-25 00:11 | 39.12863 | -94.58952 | 762 ft | 11 kts | 278° |
| 2026-04-25 00:11 | 39.12880 | -94.59058 | 761 ft | 10 kts | 281° |
| 2026-04-25 00:12 | 39.12900 | -94.59176 | 760 ft | 11 kts | 284° |
| 2026-04-25 00:12 | 39.12898 | -94.59248 | 759 ft | 6 kts | 229° |
| 2026-04-25 00:12 | 39.12878 | -94.59265 | 759 ft | 0 kts | 206° |
| 2026-04-25 00:12 | 39.12851 | -94.59279 | 759 ft | 12 kts | 196° |
| 2026-04-25 00:13 | 39.12723 | -94.59316 | 759 ft | 18 kts | 190° |
| 2026-04-25 00:13 | 39.12581 | -94.59355 | 758 ft | 18 kts | 193° |
| 2026-04-25 00:13 | 39.12434 | -94.59400 | 759 ft | 13 kts | 193° |
| 2026-04-25 00:13 | 39.12349 | -94.59454 | 759 ft | 10 kts | 236° |
| 2026-04-25 00:14 | 39.12321 | -94.59563 | 759 ft | 12 kts | 251° |
| 2026-04-25 00:14 | 39.12260 | -94.59675 | 759 ft | 14 kts | 229° |
| 2026-04-25 00:14 | 39.12180 | -94.59798 | 759 ft | 16 kts | 230° |
| 2026-04-25 00:14 | 39.12107 | -94.59876 | 759 ft | 12 kts | 190° |
| 2026-04-25 00:15 | 39.12056 | -94.59882 | 759 ft | 0 kts | 185° |
| 2026-04-25 00:15 | 39.12047 | -94.59882 | 759 ft | 2 kts | 185° |
| 2026-04-25 00:15 | 39.12014 | -94.59892 | 759 ft | 5 kts | 206° |
| 2026-04-25 00:15 | 39.11973 | -94.59953 | 759 ft | 10 kts | 240° |
| 2026-04-25 00:16 | 39.11964 | -94.59974 | 759 ft | 1 kts | 244° |
| 2026-04-25 00:16 | 39.11961 | -94.59987 | 759 ft | 0 kts | 258° |
| 2026-04-25 00:36 | 39.11963 | -94.59975 | 759 ft | 3 kts | 258° |
| 2026-04-25 00:36 | 39.11968 | -94.59950 | 759 ft | 1 kts | 257° |
| 2026-04-25 00:36 | 39.11971 | -94.59935 | 759 ft | 0 kts | 247° |
| 2026-04-25 00:36 | 39.11975 | -94.59925 | 759 ft | 1 kts | 229° |
| 2026-04-25 00:37 | 39.11981 | -94.59917 | 759 ft | 1 kts | 210° |
| 2026-04-25 00:37 | 39.11988 | -94.59914 | 759 ft | 0 kts | 193° |
| 2026-04-25 00:37 | 39.11996 | -94.59912 | 759 ft | 0 kts | 175° |
| 2026-04-25 00:37 | 39.11997 | -94.59912 | 759 ft | 0 kts | 174° |
| 2026-04-25 00:39 | 39.11993 | -94.59911 | 759 ft | 1 kts | 173° |
| 2026-04-25 00:39 | 39.11982 | -94.59910 | 759 ft | 1 kts | 173° |
| 2026-04-25 00:39 | 39.11962 | -94.59907 | 759 ft | 3 kts | 172° |
| 2026-04-25 00:39 | 39.11915 | -94.59899 | 759 ft | 8 kts | 172° |
| 2026-04-25 00:40 | 39.11827 | -94.59888 | 759 ft | 13 kts | 178° |
| 2026-04-25 00:40 | 39.11773 | -94.59888 | 759 ft | 0 kts | 181° |
| 2026-04-25 00:41 | 39.11757 | -94.59888 | 759 ft | 5 kts | 179° |
| 2026-04-25 00:41 | 39.11696 | -94.59869 | 759 ft | 7 kts | 149° |
| 2026-04-25 00:41 | 39.11697 | -94.59794 | 759 ft | 9 kts | 53° |
| 2026-04-25 00:41 | 39.11705 | -94.59783 | 759 ft | 0 kts | 45° |
| 2026-04-25 00:42 | 39.11745 | -94.59738 | 759 ft | 42 kts | 39° |
| 2026-04-25 00:42 | 39.12410 | -94.59061 | 760 ft | 160 kts | 39° |
| 2026-04-25 00:42 | 39.13322 | -94.58106 | 2163 ft | 140 kts | 40° |
| 2026-04-25 00:43 | 39.14151 | -94.57265 | 3126 ft | 142 kts | 38° |
| 2026-04-25 00:43 | 39.15154 | -94.56555 | 3993 ft | 150 kts | 22° |
| 2026-04-25 00:43 | 39.16372 | -94.56116 | 4691 ft | 172 kts | 15° |
| 2026-04-25 00:43 | 39.17831 | -94.55777 | 5304 ft | 200 kts | 7° |
| 2026-04-25 00:44 | 39.19557 | -94.55716 | 6042 ft | 236 kts | 0° |
| 2026-04-25 00:44 | 39.21549 | -94.55814 | 7086 ft | 261 kts | 358° |
| 2026-04-25 00:44 | 39.23663 | -94.55929 | 8309 ft | 277 kts | 358° |
| 2026-04-25 00:44 | 39.25857 | -94.56451 | 9676 ft | 285 kts | 332° |
| 2026-04-25 00:45 | 39.27633 | -94.58351 | 10997 ft | 303 kts | 305° |
| 2026-04-25 00:45 | 39.28618 | -94.61329 | 11916 ft | 336 kts | 279° |
| 2026-04-25 00:45 | 39.28684 | -94.64887 | 12744 ft | 370 kts | 265° |
| 2026-04-25 00:45 | 39.28464 | -94.68658 | 13794 ft | 393 kts | 267° |
| 2026-04-25 00:46 | 39.28371 | -94.72688 | 15300 ft | 404 kts | 269° |
| 2026-04-25 00:46 | 39.28232 | -94.76849 | 16958 ft | 411 kts | 265° |
| 2026-04-25 00:46 | 39.27320 | -94.85291 | 20173 ft | 422 kts | 261° |
| 2026-04-25 00:47 | 39.26777 | -94.89679 | 21723 ft | 429 kts | 261° |
| 2026-04-25 00:47 | 39.26238 | -94.94113 | 23266 ft | 435 kts | 261° |
| 2026-04-25 00:47 | 39.25716 | -94.98579 | 24709 ft | 442 kts | 262° |
| 2026-04-25 00:47 | 39.25203 | -95.03185 | 26046 ft | 448 kts | 262° |
| 2026-04-25 00:48 | 39.24690 | -95.07750 | 27345 ft | 453 kts | 261° |
| 2026-04-25 00:48 | 39.24153 | -95.12471 | 28649 ft | 458 kts | 261° |